createdAt,value
2017-12-30T00:00:20.758Z,7.77
2017-12-30T00:02:48.921Z,7.15
2017-12-30T00:05:17.119Z,8.00
2017-12-30T00:07:45.296Z,5.93
2017-12-30T00:10:13.470Z,6.90
2017-12-30T00:12:41.649Z,6.57
2017-12-30T00:15:09.866Z,5.80
2017-12-30T00:17:38.839Z,5.53
2017-12-30T00:20:09.281Z,8.18
2017-12-30T00:22:37.504Z,8.35
2017-12-30T00:25:05.676Z,7.30
2017-12-30T00:27:33.881Z,6.10
2017-12-30T00:30:02.064Z,8.87
2017-12-30T00:32:30.257Z,9.13
2017-12-30T00:34:58.440Z,5.57
2017-12-30T00:37:26.622Z,9.02
2017-12-30T00:39:54.812Z,6.83
2017-12-30T00:42:22.989Z,7.00
2017-12-30T00:44:51.158Z,7.60
2017-12-30T00:47:19.337Z,8.57
2017-12-30T00:49:47.541Z,5.57
2017-12-30T00:52:15.737Z,6.23
2017-12-30T00:54:45.647Z,6.32
2017-12-30T00:57:13.847Z,6.70
2017-12-30T00:59:42.035Z,6.60
2017-12-30T01:02:10.692Z,6.07
2017-12-30T01:04:41.162Z,5.18
2017-12-30T01:07:09.366Z,6.00
2017-12-30T01:09:37.542Z,5.12
2017-12-30T01:12:05.714Z,4.70
2017-12-30T01:14:33.921Z,7.32
2017-12-30T01:17:02.121Z,8.90
2017-12-30T01:19:30.318Z,7.35
2017-12-30T01:21:58.489Z,4.17
2017-12-30T01:24:26.704Z,7.12
2017-12-30T01:26:54.886Z,6.93
2017-12-30T01:29:23.092Z,5.45
2017-12-30T01:31:51.266Z,8.55
2017-12-30T01:34:19.453Z,5.62
2017-12-30T01:36:48.529Z,7.50
2017-12-30T01:39:16.722Z,5.82
2017-12-30T01:41:44.894Z,5.30
2017-12-30T01:44:13.090Z,6.80
2017-12-30T01:46:41.251Z,5.90
2017-12-30T01:49:09.423Z,5.10
2017-12-30T01:51:37.607Z,9.18
2017-12-30T01:54:05.791Z,6.37
2017-12-30T01:56:34.000Z,4.03
2017-12-30T01:59:02.186Z,4.47
2017-12-30T02:01:31.153Z,5.60
2017-12-30T02:03:59.328Z,6.22
2017-12-30T02:06:27.520Z,6.72
2017-12-30T02:08:55.706Z,4.82
2017-12-30T02:11:24.662Z,9.55
2017-12-30T02:13:52.865Z,3.65
2017-12-30T02:16:21.039Z,4.85
2017-12-30T02:18:49.236Z,5.80
2017-12-30T02:21:18.185Z,5.87
2017-12-30T02:23:46.374Z,8.93
2017-12-30T02:26:14.561Z,3.30
2017-12-30T02:28:43.498Z,3.58
2017-12-30T02:31:11.680Z,5.97
2017-12-30T02:33:41.635Z,4.35
2017-12-30T02:36:10.702Z,5.45
2017-12-30T02:38:38.891Z,5.28
2017-12-30T02:41:07.525Z,5.03
2017-12-30T02:43:35.710Z,6.20
2017-12-30T02:46:03.874Z,5.87
2017-12-30T02:48:32.050Z,4.40
2017-12-30T02:51:00.948Z,7.57
2017-12-30T02:53:29.204Z,5.70
2017-12-30T02:55:58.531Z,3.35
2017-12-30T02:58:28.664Z,4.70
2017-12-30T03:00:56.968Z,5.00
2017-12-30T03:03:25.149Z,6.43
2017-12-30T03:05:53.342Z,6.57
2017-12-30T03:08:22.282Z,6.53
2017-12-30T03:10:50.465Z,3.37
2017-12-30T03:13:18.784Z,4.62
2017-12-30T03:15:46.990Z,7.50
2017-12-30T03:18:16.126Z,3.55
2017-12-30T03:20:44.593Z,6.07
2017-12-30T03:23:12.790Z,4.72
2017-12-30T03:25:40.978Z,7.12
2017-12-30T03:28:10.022Z,5.18
2017-12-30T03:30:38.214Z,5.60
2017-12-30T03:33:06.463Z,10.68
2017-12-30T03:35:34.653Z,9.35
2017-12-30T03:38:02.836Z,5.60
2017-12-30T03:40:31.031Z,4.85
2017-12-30T03:42:59.209Z,5.93
2017-12-30T03:45:27.385Z,6.40
2017-12-30T03:47:55.587Z,5.05
2017-12-30T03:50:24.549Z,6.47
2017-12-30T03:52:52.745Z,7.37
2017-12-30T03:55:20.937Z,7.22
2017-12-30T03:57:49.882Z,4.22
2017-12-30T04:00:18.087Z,4.90
2017-12-30T04:03:03.642Z,6.30
2017-12-30T04:05:31.814Z,4.80
2017-12-30T04:08:06.570Z,4.70
2017-12-30T04:10:34.758Z,6.37
2017-12-30T04:13:02.936Z,4.55
2017-12-30T04:15:31.881Z,7.80
2017-12-30T04:18:00.063Z,5.95
2017-12-30T04:20:28.269Z,6.43
2017-12-30T04:22:56.451Z,9.95
2017-12-30T04:25:24.690Z,8.20
2017-12-30T04:27:58.097Z,5.55
2017-12-30T04:30:26.354Z,6.65
2017-12-30T04:32:54.540Z,8.15
2017-12-30T04:35:22.797Z,5.47
2017-12-30T04:37:50.984Z,8.00
2017-12-30T04:40:19.176Z,6.37
2017-12-30T04:42:49.041Z,6.22
2017-12-30T04:45:17.252Z,10.27
2017-12-30T04:47:45.717Z,7.80
2017-12-30T04:50:14.382Z,4.80
2017-12-30T04:52:42.572Z,9.10
2017-12-30T04:55:27.540Z,6.20
2017-12-30T04:57:55.745Z,8.18
2017-12-30T05:00:24.018Z,4.70
2017-12-30T05:02:54.542Z,4.93
2017-12-30T05:05:23.263Z,8.55
2017-12-30T05:07:51.444Z,9.55
2017-12-30T05:10:20.389Z,7.10
2017-12-30T05:12:48.578Z,6.43
2017-12-30T05:15:17.713Z,5.18
2017-12-30T05:17:47.384Z,5.47
2017-12-30T05:20:15.570Z,4.70
2017-12-30T05:22:43.762Z,6.43
2017-12-30T05:25:11.935Z,6.60
2017-12-30T05:27:40.120Z,4.57
2017-12-30T05:30:09.113Z,5.53
2017-12-30T05:32:38.060Z,5.30
2017-12-30T05:35:06.238Z,5.95
2017-12-30T05:37:35.182Z,4.57
2017-12-30T05:40:04.129Z,6.03
2017-12-30T05:42:32.599Z,5.93
2017-12-30T05:45:01.553Z,7.57
2017-12-30T06:00:24.814Z,8.93
2017-12-30T06:02:53.021Z,9.70
2017-12-30T06:05:21.215Z,8.52
2017-12-30T06:07:49.396Z,7.50
2017-12-30T06:10:17.574Z,8.38
2017-12-30T06:12:45.753Z,8.02
2017-12-30T06:15:13.924Z,9.45
2017-12-30T06:17:42.131Z,8.98
2017-12-30T06:20:10.343Z,8.57
2017-12-30T06:22:38.511Z,8.60
2017-12-30T06:25:06.683Z,7.80
2017-12-30T06:27:34.855Z,6.72
2017-12-30T06:30:03.058Z,7.50
2017-12-30T06:32:31.229Z,5.72
2017-12-30T06:34:59.408Z,6.70
2017-12-30T06:37:28.355Z,10.77
2017-12-30T06:39:56.545Z,10.30
2017-12-30T06:42:26.994Z,8.43
2017-12-30T06:44:55.212Z,6.20
2017-12-30T06:47:23.385Z,8.02
2017-12-30T06:49:51.552Z,8.93
2017-12-30T06:52:19.726Z,7.82
2017-12-30T06:54:47.902Z,6.20
2017-12-30T06:57:16.118Z,6.03
2017-12-30T06:59:44.405Z,9.90
2017-12-30T07:02:12.575Z,4.78
2017-12-30T07:04:40.746Z,7.72
2017-12-30T07:07:08.946Z,6.00
2017-12-30T07:09:37.118Z,7.35
2017-12-30T07:12:05.323Z,7.40
2017-12-30T07:14:33.514Z,9.77
2017-12-30T07:17:01.739Z,10.27
2017-12-30T07:19:29.893Z,10.27
2017-12-30T07:21:58.079Z,8.00
2017-12-30T07:24:26.297Z,8.32
2017-12-30T07:26:55.082Z,6.82
2017-12-30T07:29:24.064Z,11.05
2017-12-30T07:31:53.058Z,6.15
2017-12-30T07:34:22.002Z,9.95
2017-12-30T07:36:50.176Z,8.20
2017-12-30T07:39:18.342Z,5.90
2017-12-30T07:41:46.511Z,5.43
2017-12-30T07:44:14.758Z,6.30
2017-12-30T07:46:46.740Z,5.45
2017-12-30T07:49:15.070Z,5.28
2017-12-30T07:51:43.436Z,6.37
2017-12-30T07:54:11.680Z,7.12
2017-12-30T07:56:39.859Z,7.22
2017-12-30T07:59:08.043Z,7.25
2017-12-30T08:01:36.238Z,9.48
2017-12-30T08:04:04.414Z,9.10
2017-12-30T08:06:32.594Z,8.15
2017-12-30T08:09:02.562Z,6.05
2017-12-30T08:11:30.754Z,6.10
2017-12-30T08:13:58.933Z,6.60
2017-12-30T08:16:27.153Z,6.10
2017-12-30T08:18:57.321Z,5.95
2017-12-30T08:21:41.145Z,22.85
2017-12-30T08:24:11.806Z,9.23
2017-12-30T08:26:54.938Z,9.18
2017-12-30T08:29:28.146Z,7.97
2017-12-30T08:31:57.093Z,5.47
2017-12-30T08:34:25.305Z,9.77
2017-12-30T08:36:53.492Z,5.53
2017-12-30T08:39:22.434Z,7.10
2017-12-30T08:41:50.615Z,5.78
2017-12-30T08:44:18.786Z,9.38
2017-12-30T08:46:46.957Z,6.72
2017-12-30T08:49:16.359Z,5.37
2017-12-30T08:51:58.919Z,8.65
2017-12-30T08:54:27.976Z,9.10
2017-12-30T08:56:56.165Z,17.27
2017-12-30T08:59:32.647Z,15.90
2017-12-30T09:02:01.514Z,12.57
2017-12-30T09:04:29.743Z,10.00
2017-12-30T09:06:58.693Z,8.73
2017-12-30T09:09:26.982Z,7.45
2017-12-30T09:11:55.203Z,8.27
2017-12-30T09:14:23.380Z,6.30
2017-12-30T09:16:51.591Z,9.33
2017-12-30T09:19:19.820Z,6.68
2017-12-30T09:21:48.001Z,23.83
2017-12-30T09:24:16.214Z,17.57
2017-12-30T09:26:44.430Z,9.93
2017-12-30T09:29:13.449Z,13.33
2017-12-30T09:31:41.618Z,17.80
2017-12-30T09:34:09.817Z,9.97
2017-12-30T09:36:38.002Z,5.80
2017-12-30T09:39:06.227Z,10.53
2017-12-30T09:41:35.172Z,7.37
2017-12-30T09:44:03.348Z,12.37
2017-12-30T09:46:31.602Z,10.77
2017-12-30T09:48:59.790Z,9.60
2017-12-30T09:51:27.966Z,10.20
2017-12-30T09:53:56.117Z,9.13
2017-12-30T09:56:24.284Z,14.13
2017-12-30T09:58:52.459Z,11.87
2017-12-30T10:01:20.625Z,19.37
2017-12-30T10:03:49.573Z,18.77
2017-12-30T10:06:17.810Z,16.10
2017-12-30T10:08:46.029Z,16.23
2017-12-30T10:11:14.212Z,19.93
2017-12-30T10:13:42.400Z,19.37
2017-12-30T10:16:11.369Z,17.70
2017-12-30T10:18:39.541Z,15.27
2017-12-30T10:21:07.807Z,19.20
2017-12-30T10:23:36.126Z,18.13
2017-12-30T10:26:05.063Z,17.27
2017-12-30T10:28:33.240Z,19.10
2017-12-30T10:31:01.436Z,13.00
2017-12-30T10:33:29.684Z,14.67
2017-12-30T10:35:57.973Z,14.33
2017-12-30T10:38:26.156Z,23.83
2017-12-30T10:40:54.366Z,16.43
2017-12-30T10:43:22.553Z,11.63
2017-12-30T10:45:51.504Z,13.20
2017-12-30T10:48:19.671Z,12.60
2017-12-30T10:50:48.102Z,10.17
2017-12-30T10:53:17.052Z,13.90
2017-12-30T10:55:45.227Z,10.77
2017-12-30T10:58:13.395Z,10.67
2017-12-30T11:00:47.001Z,14.20
2017-12-30T11:03:15.179Z,11.43
2017-12-30T11:05:43.397Z,10.40
2017-12-30T11:08:12.359Z,9.47
2017-12-30T11:10:40.549Z,11.30
2017-12-30T11:13:08.721Z,9.93
2017-12-30T11:15:36.917Z,9.97
2017-12-30T11:18:05.101Z,8.00
2017-12-30T11:20:33.302Z,11.03
2017-12-30T11:23:01.493Z,9.57
2017-12-30T11:25:29.726Z,8.20
2017-12-30T11:27:57.895Z,9.93
2017-12-30T11:30:26.832Z,10.03
2017-12-30T11:32:55.044Z,10.37
2017-12-30T11:35:23.227Z,7.60
2017-12-30T11:37:52.209Z,9.40
2017-12-30T11:40:20.373Z,8.47
2017-12-30T11:42:48.578Z,11.30
2017-12-30T11:45:17.521Z,12.60
2017-12-30T11:47:45.682Z,8.83
2017-12-30T11:50:13.890Z,9.43
2017-12-30T11:52:42.058Z,12.20
2017-12-30T11:55:10.234Z,12.93
2017-12-30T11:57:38.440Z,11.97
2017-12-30T12:00:07.383Z,12.83
2017-12-30T12:02:35.593Z,11.77
2017-12-30T12:05:03.777Z,11.20
2017-12-30T12:07:32.739Z,12.97
2017-12-30T12:10:00.909Z,15.97
2017-12-30T12:12:29.114Z,10.40
2017-12-30T12:14:58.057Z,14.30
2017-12-30T12:17:26.234Z,13.50
2017-12-30T12:19:54.431Z,12.80
2017-12-30T12:22:22.639Z,8.90
2017-12-30T12:24:50.835Z,9.43
2017-12-30T12:27:19.006Z,14.50
2017-12-30T12:29:47.201Z,9.80
2017-12-30T12:32:15.359Z,9.50
2017-12-30T12:34:43.545Z,9.33
2017-12-30T12:37:11.739Z,11.00
2017-12-30T12:39:39.931Z,10.30
2017-12-30T12:42:08.101Z,12.40
2017-12-30T12:44:36.269Z,8.60
2017-12-30T12:47:04.470Z,11.13
2017-12-30T12:49:32.773Z,11.10
2017-12-30T12:52:01.726Z,9.03
2017-12-30T12:54:29.922Z,10.70
2017-12-30T12:56:58.856Z,8.43
2017-12-30T12:59:27.047Z,12.57
2017-12-30T13:01:55.230Z,11.03
2017-12-30T13:04:23.404Z,13.90
2017-12-30T13:06:51.571Z,7.67
2017-12-30T13:09:19.742Z,11.83
2017-12-30T13:11:47.902Z,12.40
2017-12-30T13:14:16.066Z,15.50
2017-12-30T13:16:49.975Z,11.73
2017-12-30T13:19:18.965Z,18.13
2017-12-30T13:21:50.653Z,16.57
2017-12-30T13:24:19.055Z,13.40
2017-12-30T13:26:52.400Z,17.00
2017-12-30T13:29:20.765Z,12.93
2017-12-30T13:31:53.749Z,13.77
2017-12-30T13:34:24.945Z,14.80
2017-12-30T13:36:54.967Z,12.77
2017-12-30T13:39:25.682Z,11.20
2017-12-30T13:41:57.455Z,10.50
2017-12-30T13:44:30.348Z,11.60
2017-12-30T13:46:58.788Z,12.07
2017-12-30T13:49:31.901Z,15.53
2017-12-30T13:52:00.486Z,11.63
2017-12-30T13:54:30.909Z,10.07
2017-12-30T13:57:00.152Z,13.60
2017-12-30T13:59:31.499Z,16.70
2017-12-30T14:01:59.695Z,13.83
2017-12-30T14:04:34.203Z,13.53
2017-12-30T14:07:06.448Z,18.33
2017-12-30T14:09:34.842Z,20.70
2017-12-30T14:12:03.042Z,26.03
2017-12-30T14:14:32.028Z,15.33
2017-12-30T14:17:00.933Z,17.47
2017-12-30T14:19:29.900Z,13.67
2017-12-30T14:21:58.062Z,16.23
2017-12-30T14:24:26.229Z,18.57
2017-12-30T14:26:55.194Z,20.70
2017-12-30T14:29:23.401Z,15.27
2017-12-30T14:31:51.628Z,16.80
2017-12-30T14:34:19.808Z,13.80
2017-12-30T14:36:47.991Z,18.33
2017-12-30T14:39:16.166Z,14.90
2017-12-30T14:41:44.329Z,16.57
2017-12-30T14:44:12.512Z,13.60
2017-12-30T14:46:40.691Z,15.03
2017-12-30T14:49:08.854Z,21.80
2017-12-30T14:51:37.060Z,14.43
2017-12-30T14:54:05.242Z,14.67
2017-12-30T14:56:34.171Z,11.80
2017-12-30T14:59:03.124Z,14.30
2017-12-30T15:01:31.301Z,13.77
2017-12-30T15:03:59.461Z,9.70
2017-12-30T15:06:27.729Z,11.90
2017-12-30T15:08:55.903Z,11.87
2017-12-30T15:11:24.073Z,15.00
2017-12-30T15:13:52.238Z,23.13
2017-12-30T15:16:20.405Z,12.10
2017-12-30T15:18:48.594Z,14.70
2017-12-30T15:21:16.758Z,13.57
2017-12-30T15:23:44.918Z,14.30
2017-12-30T15:26:13.859Z,13.47
2017-12-30T15:28:42.020Z,14.07
2017-12-30T15:31:10.196Z,10.13
2017-12-30T15:33:38.385Z,15.20
2017-12-30T15:36:06.557Z,16.67
2017-12-30T15:38:34.732Z,13.87
2017-12-30T15:41:02.899Z,13.67
2017-12-30T15:43:31.060Z,11.73
2017-12-30T15:45:59.247Z,11.47
2017-12-30T15:48:27.445Z,10.67
2017-12-30T15:50:55.604Z,17.10
2017-12-30T15:53:23.764Z,12.80
2017-12-30T15:55:51.930Z,17.57
2017-12-30T15:58:20.114Z,15.93
2017-12-30T16:00:48.288Z,14.83
2017-12-30T16:03:16.472Z,14.80
2017-12-30T16:05:44.643Z,16.10
2017-12-30T16:08:12.800Z,21.47
2017-12-30T16:10:40.963Z,22.10
2017-12-30T16:13:09.160Z,19.30
2017-12-30T16:15:37.358Z,12.17
2017-12-30T16:18:05.525Z,15.20
2017-12-30T16:20:33.692Z,13.50
2017-12-30T16:23:01.867Z,14.10
2017-12-30T16:25:30.027Z,13.70
2017-12-30T16:27:58.200Z,13.60
2017-12-30T16:30:26.355Z,12.47
2017-12-30T16:32:54.511Z,12.20
2017-12-30T16:35:23.505Z,11.07
2017-12-30T16:37:52.440Z,11.10
2017-12-30T16:40:20.597Z,12.90
2017-12-30T16:42:48.770Z,8.93
2017-12-30T16:45:16.948Z,9.87
2017-12-30T16:47:45.122Z,10.33
2017-12-30T16:50:13.282Z,9.63
2017-12-30T16:52:42.203Z,10.53
2017-12-30T16:55:10.365Z,16.13
2017-12-30T16:57:38.551Z,15.57
2017-12-30T17:00:06.709Z,12.57
2017-12-30T17:02:34.873Z,11.17
2017-12-30T17:05:03.799Z,13.50
2017-12-30T17:07:31.989Z,14.43
2017-12-30T17:10:00.155Z,10.10
2017-12-30T17:12:28.321Z,14.87
2017-12-30T17:14:56.524Z,9.43
2017-12-30T17:17:24.727Z,13.50
2017-12-30T17:19:53.667Z,14.50
2017-12-30T17:22:21.843Z,15.03
2017-12-30T17:24:50.017Z,11.20
2017-12-30T17:27:18.196Z,14.00
2017-12-30T17:29:46.375Z,14.30
2017-12-30T17:32:14.537Z,12.60
2017-12-30T17:34:42.697Z,16.13
2017-12-30T17:37:10.866Z,13.40
2017-12-30T17:39:39.092Z,17.23
2017-12-30T17:42:07.270Z,14.77
2017-12-30T17:44:35.439Z,19.67
2017-12-30T17:47:03.620Z,19.20
2017-12-30T17:49:31.779Z,20.00
2017-12-30T17:51:59.949Z,19.67
2017-12-30T17:54:28.158Z,22.60
2017-12-30T17:56:57.107Z,23.83
2017-12-30T17:59:25.275Z,20.10
2017-12-30T18:01:53.498Z,22.63
2017-12-30T18:04:22.435Z,30.83
2017-12-30T18:06:50.623Z,31.97
2017-12-30T18:09:18.850Z,21.77
2017-12-30T18:11:47.796Z,18.27
2017-12-30T18:14:15.978Z,23.00
2017-12-30T18:16:47.448Z,18.83
2017-12-30T18:19:15.654Z,19.30
2017-12-30T18:21:44.609Z,20.10
2017-12-30T18:24:12.847Z,18.10
2017-12-30T18:26:41.050Z,21.50
2017-12-30T18:29:09.825Z,18.47
2017-12-30T18:31:38.034Z,13.97
2017-12-30T18:34:06.248Z,15.10
2017-12-30T18:36:34.468Z,12.13
2017-12-30T18:39:02.663Z,16.10
2017-12-30T18:41:30.890Z,17.70
2017-12-30T18:43:59.080Z,17.20
2017-12-30T18:46:28.029Z,15.10
2017-12-30T18:48:57.044Z,16.97
2017-12-30T18:51:25.234Z,13.90
2017-12-30T18:53:53.410Z,22.90
2017-12-30T18:56:21.610Z,28.03
2017-12-30T18:58:49.818Z,19.80
2017-12-30T19:01:18.767Z,20.00
2017-12-30T19:03:46.961Z,21.00
2017-12-30T19:06:15.171Z,19.50
2017-12-30T19:08:43.358Z,20.87
2017-12-30T19:11:11.543Z,19.00
2017-12-30T19:13:39.733Z,19.60
2017-12-30T19:16:07.907Z,20.13
2017-12-30T19:18:36.113Z,18.37
2017-12-30T19:21:04.315Z,20.13
2017-12-30T19:23:33.325Z,15.83
2017-12-30T19:26:01.507Z,22.97
2017-12-30T19:28:29.711Z,21.57
2017-12-30T19:30:57.901Z,21.10
2017-12-30T19:33:26.116Z,16.97
2017-12-30T19:35:54.308Z,20.07
2017-12-30T19:38:22.499Z,19.57
2017-12-30T19:40:50.662Z,19.40
2017-12-30T19:43:18.852Z,17.10
2017-12-30T19:45:47.084Z,21.00
2017-12-30T19:48:16.016Z,19.10
2017-12-30T19:50:44.181Z,29.83
2017-12-30T19:53:12.412Z,25.83
2017-12-30T19:55:40.606Z,17.17
2017-12-30T19:58:08.783Z,20.63
2017-12-30T20:00:37.753Z,23.77
2017-12-30T20:03:05.928Z,23.17
2017-12-30T20:05:34.121Z,18.07
2017-12-30T20:08:02.465Z,21.80
2017-12-30T20:10:30.654Z,17.63
2017-12-30T20:12:58.818Z,19.47
2017-12-30T20:15:27.013Z,23.10
2017-12-30T20:17:55.185Z,19.93
2017-12-30T20:20:23.355Z,21.53
2017-12-30T20:22:51.530Z,22.37
2017-12-30T20:25:19.696Z,24.27
2017-12-30T20:27:47.918Z,20.40
2017-12-30T20:30:17.077Z,24.33
2017-12-30T20:32:45.536Z,22.40
2017-12-30T20:35:13.954Z,25.53
2017-12-30T20:37:42.173Z,25.63
2017-12-30T20:40:10.471Z,26.80
2017-12-30T20:42:38.650Z,27.83
2017-12-30T20:45:07.012Z,24.57
2017-12-30T20:47:35.384Z,23.80
2017-12-30T20:50:03.712Z,24.30
2017-12-30T20:52:31.912Z,20.77
2017-12-30T20:55:00.888Z,27.50
2017-12-30T20:57:29.139Z,23.53
2017-12-30T20:59:57.343Z,23.87
2017-12-30T21:02:25.544Z,33.20
2017-12-30T21:04:53.788Z,27.97
2017-12-30T21:07:21.967Z,28.63
2017-12-30T21:09:50.141Z,38.80
2017-12-30T21:12:18.324Z,26.50
2017-12-30T21:14:46.486Z,26.80
2017-12-30T21:17:14.693Z,20.83
2017-12-30T21:19:42.871Z,24.80
2017-12-30T21:22:11.884Z,22.30
2017-12-30T21:24:42.056Z,21.80
2017-12-30T21:27:25.463Z,21.40
2017-12-30T21:29:53.879Z,22.60
2017-12-30T21:32:22.240Z,21.50
2017-12-30T21:34:51.262Z,20.00
2017-12-30T21:37:19.875Z,19.80
2017-12-30T21:39:48.868Z,27.60
2017-12-30T21:42:17.884Z,26.73
2017-12-30T21:44:46.118Z,24.97
2017-12-30T21:47:14.322Z,26.17
2017-12-30T21:49:43.260Z,21.35
2017-12-30T21:52:11.436Z,22.90
2017-12-30T21:54:39.614Z,23.37
2017-12-30T21:57:08.548Z,25.63
2017-12-30T21:59:37.486Z,24.87
2017-12-30T22:02:05.646Z,24.00
2017-12-30T22:04:33.832Z,21.00
2017-12-30T22:07:02.006Z,24.50
2017-12-30T22:09:30.169Z,30.70
2017-12-30T22:11:58.335Z,38.73
2017-12-30T22:14:26.507Z,28.38
2017-12-30T22:16:54.678Z,25.17
2017-12-30T22:19:23.633Z,29.67
2017-12-30T22:21:51.807Z,24.37
2017-12-30T22:24:19.975Z,24.70
2017-12-30T22:26:48.159Z,20.23
2017-12-30T22:29:16.342Z,19.67
2017-12-30T22:31:44.497Z,20.03
2017-12-30T22:34:12.665Z,19.70
2017-12-30T22:36:40.865Z,21.97
2017-12-30T22:39:09.043Z,19.02
2017-12-30T22:41:37.202Z,21.00
2017-12-30T22:44:05.382Z,17.15
2017-12-30T22:46:34.331Z,24.90
2017-12-30T22:49:02.527Z,26.65
2017-12-30T22:51:30.697Z,23.00
2017-12-30T22:53:58.865Z,23.58
2017-12-30T22:56:27.062Z,28.30
2017-12-30T22:58:55.219Z,20.10
2017-12-30T23:01:23.382Z,18.03
2017-12-30T23:03:51.550Z,22.30
2017-12-30T23:06:19.714Z,17.90
2017-12-30T23:08:47.915Z,18.42
2017-12-30T23:11:16.153Z,15.98
2017-12-30T23:13:45.089Z,21.43
2017-12-30T23:16:13.294Z,14.07
2017-12-30T23:18:41.457Z,20.67
2017-12-30T23:21:09.621Z,19.67
2017-12-30T23:23:37.791Z,17.45
2017-12-30T23:26:06.732Z,18.77
2017-12-30T23:28:35.689Z,23.40
2017-12-30T23:31:03.851Z,19.83
2017-12-30T23:33:32.015Z,17.33
2017-12-30T23:36:00.178Z,23.90
2017-12-30T23:38:28.340Z,15.63
2017-12-30T23:40:56.533Z,17.87
2017-12-30T23:43:24.701Z,16.83
2017-12-30T23:45:52.865Z,15.93
2017-12-30T23:48:21.155Z,16.70
2017-12-30T23:50:49.315Z,20.17
2017-12-30T23:53:17.475Z,19.60
2017-12-30T23:55:46.398Z,19.20
2017-12-30T23:58:14.552Z,20.40
